Southwest Florida International Airport
KRSW : now visible

Airfield :











YOU CAN JOIN US ON...

 
LOGIN :

Register | Disclaimer

   EN    FR    IT 

 









Legend :    VFR   Marginal VFR   IFR   Intensive IFR   Very Intensive IFR
Visi :
Ceiling :
>= 8 km
>= 3000ft
5 to 8 km
1000 to 3000 ft
1500m to 5 km
500 to 1000 ft
800 to 1500m
200 to 500 ft
< 800m
< 200 ft
Symbols :   Thunderstorms  Fog  Heavy snow  Heavy precipitations  Wind > 20 kt






- Airport Elevation : 30 ft
- IATA code : RSW


KRSW - Southwest Florida International

CURRENT METAR :
  • 072006Z 35009KT 10SM TS FEW043 29/23 A3005 RMK AO2 LTG DSNT N AND SE AND S TSB1954 T02940228

EXPIRED METARs :
  • 071953Z 31010KT 10SM VCTS BKN045 29/24 A3006 RMK AO2 LTG DSNT N AND SE SLP177 T02890244
  • 071931Z 28006KT 10SM SCT049 BKN065 31/24 A3007 RMK AO2 T03060244
  • 071916Z 11006KT 10SM VCTS BKN060 33/24 A3006 RMK AO2 LTG DSNT NW T03280239
  • 071853Z 11005KT 10SM BKN055 BKN070 34/24 A3006 RMK AO2 SLP178 T03390239
  • 071753Z 00000KT 10SM FEW070 35/24 A3008 RMK AO2 LTG DSNT NW SLP183 T03500239 10350 20261 58004

TAF KRSW
Valid from the 07 at 18:00 until the 08 at 18:00 UTC


071736Z 0718/0818 29006KT P6SM VCTS BKN035CB
FM072300 31005KT P6SM SCT035 SCT130 BKN250
FM080200 VRB03KT P6SM SCT030 SCT130 BKN250
FM081600 10005KT P6SM FEW030 FEW250
KZMA FIR / North America



MET'MAP, your aeronautical weather chart ! - Copyright ORBIFLY December 2007 - Disclaimer

ORBIFLY MET'MAP TEAM :

Programming & Development : Alexandra Zaïnal
Concept & original design : Baudouin d'Aumeries
Assistance for programming : Marc-Olivier Méhu
Technical & hardware support : Manuel Goepfert

Contact : metmap@orbifly.com




SOURCES & CREDITS :

   NOAA       Earth
Advisory